Krum, Texas
Current Conditions -  °F | °C
As of 9:53 PM on Tuesday 21 Oct 2014 (Local Time) from KDTO Reporting Station
Clear Clear  
Wind Chill: 66°   Ceiling: Unl
Heat Index: 66°   Visibility: 10mi
Dew Point: 58°   Wind: 5mph
Humidity: 75%   Direction: 130°SE
Pressure: 30.06"   Gusts: NA
Location:  33.26°N, 97.24°W
Report Text: KDTO 220253Z 13004KT 10SM CLR 19/14 A3006 RMK AO2 SLP174 T01890144 53012
Loading
Personal Weather Stations






























Interactive Weather Map
Tropical Storm Tracking
New forecast layout! Learn more

10-Day Weather Forecast

Advertisements
Track Severe Weather on mobile